sensor_id;sensor_type;location;lat;lon;timestamp;P1;durP1;ratioP1;P2;durP2;ratioP2
77206;SDS011;66190;50.708;7.906;2023-01-25T00:00:45;21.67;;;6.00;;
77206;SDS011;66190;50.708;7.906;2023-01-25T00:03:11;50.80;;;8.90;;
77206;SDS011;66190;50.708;7.906;2023-01-25T00:05:36;29.10;;;7.63;;
77206;SDS011;66190;50.708;7.906;2023-01-25T00:08:02;22.35;;;6.82;;
77206;SDS011;66190;50.708;7.906;2023-01-25T00:10:28;19.57;;;6.03;;
77206;SDS011;66190;50.708;7.906;2023-01-25T00:12:54;30.52;;;6.35;;
77206;SDS011;66190;50.708;7.906;2023-01-25T00:15:21;23.13;;;6.17;;
77206;SDS011;66190;50.708;7.906;2023-01-25T00:17:46;28.45;;;7.28;;
77206;SDS011;66190;50.708;7.906;2023-01-25T00:20:12;34.65;;;7.00;;
77206;SDS011;66190;50.708;7.906;2023-01-25T00:22:38;17.67;;;5.63;;
77206;SDS011;66190;50.708;7.906;2023-01-25T00:25:04;22.38;;;5.53;;
77206;SDS011;66190;50.708;7.906;2023-01-25T00:27:29;27.35;;;5.63;;
77206;SDS011;66190;50.708;7.906;2023-01-25T00:29:55;28.52;;;6.50;;
77206;SDS011;66190;50.708;7.906;2023-01-25T00:34:47;31.23;;;6.53;;
77206;SDS011;66190;50.708;7.906;2023-01-25T00:39:53;25.38;;;6.68;;
77206;SDS011;66190;50.708;7.906;2023-01-25T00:42:28;24.43;;;5.97;;
77206;SDS011;66190;50.708;7.906;2023-01-25T00:44:53;18.70;;;5.10;;
77206;SDS011;66190;50.708;7.906;2023-01-25T00:47:19;20.40;;;4.87;;
77206;SDS011;66190;50.708;7.906;2023-01-25T00:49:45;18.13;;;4.70;;
77206;SDS011;66190;50.708;7.906;2023-01-25T00:52:11;16.27;;;4.72;;
77206;SDS011;66190;50.708;7.906;2023-01-25T00:54:37;19.30;;;5.27;;
77206;SDS011;66190;50.708;7.906;2023-01-25T00:57:03;25.20;;;5.50;;
77206;SDS011;66190;50.708;7.906;2023-01-25T00:59:29;17.67;;;5.50;;
77206;SDS011;66190;50.708;7.906;2023-01-25T01:01:55;17.92;;;5.78;;
77206;SDS011;66190;50.708;7.906;2023-01-25T01:04:20;25.70;;;5.65;;
77206;SDS011;66190;50.708;7.906;2023-01-25T01:06:49;23.80;;;6.35;;
77206;SDS011;66190;50.708;7.906;2023-01-25T01:09:17;30.25;;;6.78;;
77206;SDS011;66190;50.708;7.906;2023-01-25T01:11:44;27.70;;;6.27;;
77206;SDS011;66190;50.708;7.906;2023-01-25T01:14:10;21.70;;;5.78;;
77206;SDS011;66190;50.708;7.906;2023-01-25T01:16:35;21.25;;;5.68;;
77206;SDS011;66190;50.708;7.906;2023-01-25T01:19:01;27.77;;;6.32;;
77206;SDS011;66190;50.708;7.906;2023-01-25T01:21:28;18.63;;;4.97;;
77206;SDS011;66190;50.708;7.906;2023-01-25T01:23:54;28.00;;;5.80;;
77206;SDS011;66190;50.708;7.906;2023-01-25T01:26:20;23.47;;;7.10;;
77206;SDS011;66190;50.708;7.906;2023-01-25T01:28:46;22.05;;;5.90;;
77206;SDS011;66190;50.708;7.906;2023-01-25T01:31:13;22.97;;;7.27;;
77206;SDS011;66190;50.708;7.906;2023-01-25T01:33:43;19.88;;;6.07;;
77206;SDS011;66190;50.708;7.906;2023-01-25T01:36:12;26.10;;;6.15;;
77206;SDS011;66190;50.708;7.906;2023-01-25T01:38:40;27.37;;;6.30;;
77206;SDS011;66190;50.708;7.906;2023-01-25T01:41:06;21.52;;;6.43;;
77206;SDS011;66190;50.708;7.906;2023-01-25T01:43:32;23.95;;;6.13;;
77206;SDS011;66190;50.708;7.906;2023-01-25T01:46:02;19.02;;;5.30;;
77206;SDS011;66190;50.708;7.906;2023-01-25T01:48:39;19.65;;;5.80;;
77206;SDS011;66190;50.708;7.906;2023-01-25T01:53:59;23.73;;;5.63;;
77206;SDS011;66190;50.708;7.906;2023-01-25T01:56:44;19.45;;;5.38;;
77206;SDS011;66190;50.708;7.906;2023-01-25T01:59:14;16.15;;;4.93;;
77206;SDS011;66190;50.708;7.906;2023-01-25T02:01:40;18.23;;;4.28;;
77206;SDS011;66190;50.708;7.906;2023-01-25T02:04:08;15.90;;;4.07;;
77206;SDS011;66190;50.708;7.906;2023-01-25T02:06:46;19.40;;;4.75;;
77206;SDS011;66190;50.708;7.906;2023-01-25T02:09:18;15.07;;;4.75;;
77206;SDS011;66190;50.708;7.906;2023-01-25T02:11:46;15.65;;;4.40;;
77206;SDS011;66190;50.708;7.906;2023-01-25T02:14:13;12.88;;;4.00;;
77206;SDS011;66190;50.708;7.906;2023-01-25T02:16:40;16.37;;;4.80;;
77206;SDS011;66190;50.708;7.906;2023-01-25T02:19:07;16.27;;;4.40;;
77206;SDS011;66190;50.708;7.906;2023-01-25T02:21:38;13.57;;;4.57;;
77206;SDS011;66190;50.708;7.906;2023-01-25T02:24:08;15.70;;;4.80;;
77206;SDS011;66190;50.708;7.906;2023-01-25T02:26:40;23.13;;;4.97;;
77206;SDS011;66190;50.708;7.906;2023-01-25T02:29:07;15.27;;;4.40;;
77206;SDS011;66190;50.708;7.906;2023-01-25T02:31:34;16.13;;;4.47;;
77206;SDS011;66190;50.708;7.906;2023-01-25T02:33:59;16.67;;;4.80;;
77206;SDS011;66190;50.708;7.906;2023-01-25T02:36:26;18.43;;;4.13;;
77206;SDS011;66190;50.708;7.906;2023-01-25T02:41:29;22.52;;;5.68;;
77206;SDS011;66190;50.708;7.906;2023-01-25T02:44:07;23.33;;;5.22;;
77206;SDS011;66190;50.708;7.906;2023-01-25T02:46:39;15.23;;;4.63;;
77206;SDS011;66190;50.708;7.906;2023-01-25T02:49:06;33.65;;;5.28;;
77206;SDS011;66190;50.708;7.906;2023-01-25T02:51:34;18.70;;;4.35;;
77206;SDS011;66190;50.708;7.906;2023-01-25T02:54:03;20.75;;;5.28;;
77206;SDS011;66190;50.708;7.906;2023-01-25T02:56:29;16.98;;;4.88;;
77206;SDS011;66190;50.708;7.906;2023-01-25T02:58:55;21.83;;;5.40;;
77206;SDS011;66190;50.708;7.906;2023-01-25T03:01:21;22.98;;;5.32;;
77206;SDS011;66190;50.708;7.906;2023-01-25T03:03:47;18.67;;;4.63;;
77206;SDS011;66190;50.708;7.906;2023-01-25T03:06:13;15.85;;;4.32;;
77206;SDS011;66190;50.708;7.906;2023-01-25T03:08:39;19.45;;;4.03;;
77206;SDS011;66190;50.708;7.906;2023-01-25T03:11:05;15.00;;;3.90;;
77206;SDS011;66190;50.708;7.906;2023-01-25T03:13:32;16.13;;;3.90;;
77206;SDS011;66190;50.708;7.906;2023-01-25T03:16:00;19.30;;;4.55;;
77206;SDS011;66190;50.708;7.906;2023-01-25T03:18:28;22.80;;;4.77;;
77206;SDS011;66190;50.708;7.906;2023-01-25T03:20:54;18.10;;;5.20;;
77206;SDS011;66190;50.708;7.906;2023-01-25T03:23:19;15.00;;;4.50;;
77206;SDS011;66190;50.708;7.906;2023-01-25T03:25:45;20.00;;;4.70;;
77206;SDS011;66190;50.708;7.906;2023-01-25T03:28:11;13.95;;;4.20;;
77206;SDS011;66190;50.708;7.906;2023-01-25T03:30:37;17.87;;;3.67;;
77206;SDS011;66190;50.708;7.906;2023-01-25T03:33:02;14.18;;;4.07;;
77206;SDS011;66190;50.708;7.906;2023-01-25T03:35:28;18.37;;;5.07;;
77206;SDS011;66190;50.708;7.906;2023-01-25T03:37:54;28.55;;;6.57;;
77206;SDS011;66190;50.708;7.906;2023-01-25T03:40:19;20.87;;;5.37;;
77206;SDS011;66190;50.708;7.906;2023-01-25T03:42:45;19.10;;;4.78;;
77206;SDS011;66190;50.708;7.906;2023-01-25T03:45:11;15.57;;;3.73;;
77206;SDS011;66190;50.708;7.906;2023-01-25T03:47:38;22.58;;;4.20;;
77206;SDS011;66190;50.708;7.906;2023-01-25T03:50:05;32.53;;;5.65;;
77206;SDS011;66190;50.708;7.906;2023-01-25T03:52:31;31.90;;;4.53;;
77206;SDS011;66190;50.708;7.906;2023-01-25T03:55:02;28.05;;;4.82;;
77206;SDS011;66190;50.708;7.906;2023-01-25T03:57:29;17.73;;;5.30;;
77206;SDS011;66190;50.708;7.906;2023-01-25T03:59:55;18.50;;;4.78;;
77206;SDS011;66190;50.708;7.906;2023-01-25T04:02:20;15.02;;;3.67;;
77206;SDS011;66190;50.708;7.906;2023-01-25T04:04:46;46.20;;;7.03;;
77206;SDS011;66190;50.708;7.906;2023-01-25T04:07:12;63.08;;;7.63;;
77206;SDS011;66190;50.708;7.906;2023-01-25T04:09:37;55.77;;;7.60;;
77206;SDS011;66190;50.708;7.906;2023-01-25T04:12:03;46.55;;;6.57;;
77206;SDS011;66190;50.708;7.906;2023-01-25T04:14:29;22.07;;;4.50;;
77206;SDS011;66190;50.708;7.906;2023-01-25T04:16:54;34.30;;;5.47;;
77206;SDS011;66190;50.708;7.906;2023-01-25T04:19:20;23.27;;;5.25;;
77206;SDS011;66190;50.708;7.906;2023-01-25T04:21:45;22.40;;;5.10;;
77206;SDS011;66190;50.708;7.906;2023-01-25T04:24:11;21.98;;;5.18;;
77206;SDS011;66190;50.708;7.906;2023-01-25T04:26:37;18.27;;;4.57;;
77206;SDS011;66190;50.708;7.906;2023-01-25T04:29:02;18.07;;;4.23;;
77206;SDS011;66190;50.708;7.906;2023-01-25T04:31:28;20.23;;;5.13;;
77206;SDS011;66190;50.708;7.906;2023-01-25T04:33:54;18.87;;;4.20;;
77206;SDS011;66190;50.708;7.906;2023-01-25T04:36:20;30.98;;;11.32;;
77206;SDS011;66190;50.708;7.906;2023-01-25T04:38:45;27.25;;;7.00;;
77206;SDS011;66190;50.708;7.906;2023-01-25T04:41:11;43.58;;;5.68;;
77206;SDS011;66190;50.708;7.906;2023-01-25T04:43:37;24.07;;;5.47;;
77206;SDS011;66190;50.708;7.906;2023-01-25T04:46:02;21.40;;;5.60;;
77206;SDS011;66190;50.708;7.906;2023-01-25T04:48:29;26.30;;;5.18;;
77206;SDS011;66190;50.708;7.906;2023-01-25T04:50:54;16.90;;;5.13;;
77206;SDS011;66190;50.708;7.906;2023-01-25T04:53:20;14.77;;;4.13;;
77206;SDS011;66190;50.708;7.906;2023-01-25T04:55:46;15.77;;;4.30;;
77206;SDS011;66190;50.708;7.906;2023-01-25T04:58:12;16.50;;;4.20;;
77206;SDS011;66190;50.708;7.906;2023-01-25T05:00:38;14.68;;;3.38;;
77206;SDS011;66190;50.708;7.906;2023-01-25T05:03:03;14.30;;;3.73;;
77206;SDS011;66190;50.708;7.906;2023-01-25T05:05:29;26.05;;;6.70;;
77206;SDS011;66190;50.708;7.906;2023-01-25T05:07:55;30.10;;;7.80;;
77206;SDS011;66190;50.708;7.906;2023-01-25T05:10:21;18.53;;;4.10;;
77206;SDS011;66190;50.708;7.906;2023-01-25T05:12:46;16.95;;;3.95;;
77206;SDS011;66190;50.708;7.906;2023-01-25T05:15:12;20.52;;;4.70;;
77206;SDS011;66190;50.708;7.906;2023-01-25T05:17:38;18.63;;;4.43;;
77206;SDS011;66190;50.708;7.906;2023-01-25T05:20:04;22.80;;;5.88;;
77206;SDS011;66190;50.708;7.906;2023-01-25T05:22:29;20.37;;;4.37;;
77206;SDS011;66190;50.708;7.906;2023-01-25T05:24:55;17.60;;;5.00;;
77206;SDS011;66190;50.708;7.906;2023-01-25T05:27:23;18.42;;;4.07;;
77206;SDS011;66190;50.708;7.906;2023-01-25T05:29:48;24.67;;;3.60;;
77206;SDS011;66190;50.708;7.906;2023-01-25T05:32:18;13.33;;;3.03;;
77206;SDS011;66190;50.708;7.906;2023-01-25T05:34:45;15.23;;;3.88;;
77206;SDS011;66190;50.708;7.906;2023-01-25T05:37:11;18.38;;;3.60;;
77206;SDS011;66190;50.708;7.906;2023-01-25T05:39:39;14.33;;;3.37;;
77206;SDS011;66190;50.708;7.906;2023-01-25T05:42:09;17.83;;;5.55;;
77206;SDS011;66190;50.708;7.906;2023-01-25T05:44:37;17.92;;;5.57;;
77206;SDS011;66190;50.708;7.906;2023-01-25T05:47:03;15.70;;;5.17;;
77206;SDS011;66190;50.708;7.906;2023-01-25T05:49:28;14.88;;;4.03;;
77206;SDS011;66190;50.708;7.906;2023-01-25T05:51:54;29.17;;;6.23;;
77206;SDS011;66190;50.708;7.906;2023-01-25T05:54:20;26.83;;;6.78;;
77206;SDS011;66190;50.708;7.906;2023-01-25T05:56:47;17.07;;;5.10;;
77206;SDS011;66190;50.708;7.906;2023-01-25T05:59:13;19.92;;;5.55;;
77206;SDS011;66190;50.708;7.906;2023-01-25T06:01:39;19.88;;;5.63;;
77206;SDS011;66190;50.708;7.906;2023-01-25T06:04:05;19.57;;;5.33;;
77206;SDS011;66190;50.708;7.906;2023-01-25T06:06:31;21.63;;;4.90;;
77206;SDS011;66190;50.708;7.906;2023-01-25T06:08:57;16.23;;;4.33;;
77206;SDS011;66190;50.708;7.906;2023-01-25T06:11:23;20.25;;;5.38;;
77206;SDS011;66190;50.708;7.906;2023-01-25T06:13:49;28.20;;;8.30;;
77206;SDS011;66190;50.708;7.906;2023-01-25T06:16:16;18.20;;;6.10;;
77206;SDS011;66190;50.708;7.906;2023-01-25T06:18:42;20.73;;;4.60;;
77206;SDS011;66190;50.708;7.906;2023-01-25T06:21:08;19.00;;;4.70;;
77206;SDS011;66190;50.708;7.906;2023-01-25T06:23:35;15.43;;;4.53;;
77206;SDS011;66190;50.708;7.906;2023-01-25T06:26:02;14.37;;;3.53;;
77206;SDS011;66190;50.708;7.906;2023-01-25T06:28:30;15.20;;;3.55;;
77206;SDS011;66190;50.708;7.906;2023-01-25T06:31:01;16.00;;;3.35;;
77206;SDS011;66190;50.708;7.906;2023-01-25T06:33:31;15.15;;;3.45;;
77206;SDS011;66190;50.708;7.906;2023-01-25T06:36:04;25.17;;;5.27;;
77206;SDS011;66190;50.708;7.906;2023-01-25T06:38:32;21.48;;;4.50;;
77206;SDS011;66190;50.708;7.906;2023-01-25T06:40:58;25.50;;;4.15;;
77206;SDS011;66190;50.708;7.906;2023-01-25T06:43:28;25.83;;;4.50;;
77206;SDS011;66190;50.708;7.906;2023-01-25T06:45:58;17.85;;;4.13;;
77206;SDS011;66190;50.708;7.906;2023-01-25T06:48:26;20.08;;;4.00;;
77206;SDS011;66190;50.708;7.906;2023-01-25T06:50:53;16.55;;;3.72;;
77206;SDS011;66190;50.708;7.906;2023-01-25T06:53:24;21.77;;;4.70;;
77206;SDS011;66190;50.708;7.906;2023-01-25T06:56:00;21.43;;;4.63;;
77206;SDS011;66190;50.708;7.906;2023-01-25T06:58:28;31.13;;;7.57;;
77206;SDS011;66190;50.708;7.906;2023-01-25T07:00:58;21.45;;;7.35;;
77206;SDS011;66190;50.708;7.906;2023-01-25T07:03:26;22.10;;;6.60;;
77206;SDS011;66190;50.708;7.906;2023-01-25T07:05:56;21.67;;;4.75;;
77206;SDS011;66190;50.708;7.906;2023-01-25T07:08:25;20.23;;;4.37;;
77206;SDS011;66190;50.708;7.906;2023-01-25T07:10:52;16.35;;;4.25;;
77206;SDS011;66190;50.708;7.906;2023-01-25T07:13:21;24.08;;;4.65;;
77206;SDS011;66190;50.708;7.906;2023-01-25T07:15:58;17.45;;;4.47;;
77206;SDS011;66190;50.708;7.906;2023-01-25T07:18:26;14.23;;;4.63;;
77206;SDS011;66190;50.708;7.906;2023-01-25T07:20:53;16.10;;;4.10;;
77206;SDS011;66190;50.708;7.906;2023-01-25T07:23:19;11.82;;;3.75;;
77206;SDS011;66190;50.708;7.906;2023-01-25T07:25:46;16.23;;;4.07;;
77206;SDS011;66190;50.708;7.906;2023-01-25T07:28:13;17.88;;;4.05;;
77206;SDS011;66190;50.708;7.906;2023-01-25T07:30:40;21.10;;;6.00;;
77206;SDS011;66190;50.708;7.906;2023-01-25T07:33:07;15.32;;;4.53;;
77206;SDS011;66190;50.708;7.906;2023-01-25T07:35:36;16.90;;;4.57;;
77206;SDS011;66190;50.708;7.906;2023-01-25T07:38:02;18.10;;;5.05;;
77206;SDS011;66190;50.708;7.906;2023-01-25T07:40:28;21.02;;;5.03;;
77206;SDS011;66190;50.708;7.906;2023-01-25T07:42:54;13.33;;;3.57;;
77206;SDS011;66190;50.708;7.906;2023-01-25T07:45:20;16.85;;;4.68;;
77206;SDS011;66190;50.708;7.906;2023-01-25T07:47:45;19.15;;;4.88;;
77206;SDS011;66190;50.708;7.906;2023-01-25T07:50:11;19.15;;;5.15;;
77206;SDS011;66190;50.708;7.906;2023-01-25T07:52:37;16.13;;;4.83;;
77206;SDS011;66190;50.708;7.906;2023-01-25T07:55:03;17.55;;;6.28;;
77206;SDS011;66190;50.708;7.906;2023-01-25T07:57:29;13.77;;;3.97;;
77206;SDS011;66190;50.708;7.906;2023-01-25T07:59:55;13.37;;;3.87;;
77206;SDS011;66190;50.708;7.906;2023-01-25T08:02:21;11.60;;;3.35;;
77206;SDS011;66190;50.708;7.906;2023-01-25T08:04:47;12.40;;;3.10;;
77206;SDS011;66190;50.708;7.906;2023-01-25T08:07:13;12.75;;;2.90;;
77206;SDS011;66190;50.708;7.906;2023-01-25T08:09:39;9.55;;;2.60;;
77206;SDS011;66190;50.708;7.906;2023-01-25T08:12:06;9.73;;;2.60;;
77206;SDS011;66190;50.708;7.906;2023-01-25T08:14:32;9.68;;;2.10;;
77206;SDS011;66190;50.708;7.906;2023-01-25T08:16:58;10.52;;;2.60;;
77206;SDS011;66190;50.708;7.906;2023-01-25T08:19:24;9.10;;;2.65;;
77206;SDS011;66190;50.708;7.906;2023-01-25T08:21:50;14.73;;;4.25;;
77206;SDS011;66190;50.708;7.906;2023-01-25T08:24:16;14.48;;;4.35;;
77206;SDS011;66190;50.708;7.906;2023-01-25T08:26:41;9.83;;;3.50;;
77206;SDS011;66190;50.708;7.906;2023-01-25T08:29:08;10.80;;;3.92;;
77206;SDS011;66190;50.708;7.906;2023-01-25T08:31:35;11.45;;;3.10;;
77206;SDS011;66190;50.708;7.906;2023-01-25T08:34:04;12.88;;;3.10;;
77206;SDS011;66190;50.708;7.906;2023-01-25T08:36:30;11.25;;;2.67;;
77206;SDS011;66190;50.708;7.906;2023-01-25T08:38:58;10.53;;;2.90;;
77206;SDS011;66190;50.708;7.906;2023-01-25T08:41:25;9.23;;;2.47;;
77206;SDS011;66190;50.708;7.906;2023-01-25T08:43:52;11.60;;;2.85;;
77206;SDS011;66190;50.708;7.906;2023-01-25T08:46:19;10.45;;;2.60;;
77206;SDS011;66190;50.708;7.906;2023-01-25T08:48:46;9.73;;;2.78;;
77206;SDS011;66190;50.708;7.906;2023-01-25T08:51:13;8.87;;;2.50;;
77206;SDS011;66190;50.708;7.906;2023-01-25T08:53:41;9.27;;;2.42;;
77206;SDS011;66190;50.708;7.906;2023-01-25T08:56:08;8.07;;;2.37;;
77206;SDS011;66190;50.708;7.906;2023-01-25T08:58:38;9.57;;;2.90;;
77206;SDS011;66190;50.708;7.906;2023-01-25T09:01:11;10.30;;;2.92;;
77206;SDS011;66190;50.708;7.906;2023-01-25T09:03:38;9.68;;;2.20;;
77206;SDS011;66190;50.708;7.906;2023-01-25T09:06:06;11.00;;;3.20;;
77206;SDS011;66190;50.708;7.906;2023-01-25T09:08:33;11.95;;;2.22;;
77206;SDS011;66190;50.708;7.906;2023-01-25T09:10:59;11.30;;;2.90;;
77206;SDS011;66190;50.708;7.906;2023-01-25T09:13:26;10.95;;;3.70;;
77206;SDS011;66190;50.708;7.906;2023-01-25T09:15:57;9.63;;;3.10;;
77206;SDS011;66190;50.708;7.906;2023-01-25T09:18:30;8.30;;;2.33;;
77206;SDS011;66190;50.708;7.906;2023-01-25T09:20:56;11.35;;;3.10;;
77206;SDS011;66190;50.708;7.906;2023-01-25T09:23:22;10.27;;;3.17;;
77206;SDS011;66190;50.708;7.906;2023-01-25T09:25:54;10.52;;;2.85;;
77206;SDS011;66190;50.708;7.906;2023-01-25T09:28:22;12.18;;;4.50;;
77206;SDS011;66190;50.708;7.906;2023-01-25T09:31:21;11.23;;;3.00;;
77206;SDS011;66190;50.708;7.906;2023-01-25T09:33:40;9.55;;;3.08;;
77206;SDS011;66190;50.708;7.906;2023-01-25T09:36:06;11.20;;;3.17;;
77206;SDS011;66190;50.708;7.906;2023-01-25T09:38:32;10.43;;;3.37;;
77206;SDS011;66190;50.708;7.906;2023-01-25T09:41:08;8.60;;;2.80;;
77206;SDS011;66190;50.708;7.906;2023-01-25T09:46:42;15.73;;;5.45;;
77206;SDS011;66190;50.708;7.906;2023-01-25T09:54:50;11.93;;;3.60;;
77206;SDS011;66190;50.708;7.906;2023-01-25T09:57:26;15.02;;;5.18;;
77206;SDS011;66190;50.708;7.906;2023-01-25T09:59:57;10.73;;;3.20;;
77206;SDS011;66190;50.708;7.906;2023-01-25T10:05:03;10.23;;;2.90;;
77206;SDS011;66190;50.708;7.906;2023-01-25T10:10:37;9.05;;;2.80;;
77206;SDS011;66190;50.708;7.906;2023-01-25T10:13:19;12.13;;;3.10;;
77206;SDS011;66190;50.708;7.906;2023-01-25T10:15:51;12.45;;;5.22;;
77206;SDS011;66190;50.708;7.906;2023-01-25T10:21:17;12.98;;;3.70;;
77206;SDS011;66190;50.708;7.906;2023-01-25T10:26:27;10.93;;;2.65;;
77206;SDS011;66190;50.708;7.906;2023-01-25T10:34:21;11.48;;;4.00;;
77206;SDS011;66190;50.708;7.906;2023-01-25T10:36:48;9.95;;;3.17;;
77206;SDS011;66190;50.708;7.906;2023-01-25T10:39:19;11.77;;;3.75;;
77206;SDS011;66190;50.708;7.906;2023-01-25T10:41:46;11.90;;;3.80;;
77206;SDS011;66190;50.708;7.906;2023-01-25T10:44:15;15.40;;;3.00;;
77206;SDS011;66190;50.708;7.906;2023-01-25T10:46:52;11.40;;;4.20;;
77206;SDS011;66190;50.708;7.906;2023-01-25T10:49:49;9.68;;;3.33;;
77206;SDS011;66190;50.708;7.906;2023-01-25T10:52:26;11.20;;;2.80;;
77206;SDS011;66190;50.708;7.906;2023-01-25T10:57:50;13.47;;;3.77;;
77206;SDS011;66190;50.708;7.906;2023-01-25T11:02:49;23.10;;;5.05;;
77206;SDS011;66190;50.708;7.906;2023-01-25T11:07:46;43.33;;;11.93;;
77206;SDS011;66190;50.708;7.906;2023-01-25T11:10:46;21.92;;;6.93;;
77206;SDS011;66190;50.708;7.906;2023-01-25T11:23:43;12.45;;;3.88;;
77206;SDS011;66190;50.708;7.906;2023-01-25T11:26:22;16.95;;;4.15;;
77206;SDS011;66190;50.708;7.906;2023-01-25T11:28:48;17.10;;;4.40;;
77206;SDS011;66190;50.708;7.906;2023-01-25T11:31:20;13.07;;;4.27;;
77206;SDS011;66190;50.708;7.906;2023-01-25T11:33:46;13.75;;;4.18;;
77206;SDS011;66190;50.708;7.906;2023-01-25T11:36:24;12.23;;;4.32;;
77206;SDS011;66190;50.708;7.906;2023-01-25T11:39:51;12.55;;;4.10;;
77206;SDS011;66190;50.708;7.906;2023-01-25T11:50:01;17.93;;;5.20;;
77206;SDS011;66190;50.708;7.906;2023-01-25T11:55:32;14.32;;;5.18;;
77206;SDS011;66190;50.708;7.906;2023-01-25T11:58:14;14.18;;;5.28;;
77206;SDS011;66190;50.708;7.906;2023-01-25T12:11:33;11.77;;;4.50;;
77206;SDS011;66190;50.708;7.906;2023-01-25T12:17:18;30.88;;;14.27;;
77206;SDS011;66190;50.708;7.906;2023-01-25T12:20:35;29.55;;;7.22;;
77206;SDS011;66190;50.708;7.906;2023-01-25T12:31:45;21.95;;;6.75;;
77206;SDS011;66190;50.708;7.906;2023-01-25T12:34:24;21.05;;;5.90;;
77206;SDS011;66190;50.708;7.906;2023-01-25T12:37:03;21.38;;;6.43;;
77206;SDS011;66190;50.708;7.906;2023-01-25T12:39:39;19.27;;;6.87;;
77206;SDS011;66190;50.708;7.906;2023-01-25T12:42:23;17.27;;;6.25;;
77206;SDS011;66190;50.708;7.906;2023-01-25T12:45:01;18.70;;;6.70;;
77206;SDS011;66190;50.708;7.906;2023-01-25T12:47:45;17.88;;;6.75;;
77206;SDS011;66190;50.708;7.906;2023-01-25T12:53:18;18.30;;;6.47;;
77206;SDS011;66190;50.708;7.906;2023-01-25T12:55:50;19.33;;;6.60;;
77206;SDS011;66190;50.708;7.906;2023-01-25T13:07:09;21.13;;;5.60;;
77206;SDS011;66190;50.708;7.906;2023-01-25T13:09:50;17.92;;;5.70;;
77206;SDS011;66190;50.708;7.906;2023-01-25T13:12:26;15.73;;;5.78;;
77206;SDS011;66190;50.708;7.906;2023-01-25T13:14:52;17.48;;;6.03;;
77206;SDS011;66190;50.708;7.906;2023-01-25T13:17:19;17.33;;;6.10;;
77206;SDS011;66190;50.708;7.906;2023-01-25T13:19:48;24.05;;;7.10;;
77206;SDS011;66190;50.708;7.906;2023-01-25T13:27:41;16.77;;;6.27;;
77206;SDS011;66190;50.708;7.906;2023-01-25T13:32:56;18.92;;;5.88;;
77206;SDS011;66190;50.708;7.906;2023-01-25T13:37:57;28.52;;;5.97;;
77206;SDS011;66190;50.708;7.906;2023-01-25T13:43:02;19.10;;;6.90;;
77206;SDS011;66190;50.708;7.906;2023-01-25T13:45:39;19.10;;;6.57;;
77206;SDS011;66190;50.708;7.906;2023-01-25T13:48:17;18.23;;;6.80;;
77206;SDS011;66190;50.708;7.906;2023-01-25T13:50:44;24.05;;;6.80;;
77206;SDS011;66190;50.708;7.906;2023-01-25T13:55:44;26.35;;;10.50;;
77206;SDS011;66190;50.708;7.906;2023-01-25T13:58:30;24.50;;;7.60;;
77206;SDS011;66190;50.708;7.906;2023-01-25T14:01:04;38.37;;;7.13;;
77206;SDS011;66190;50.708;7.906;2023-01-25T14:03:41;40.83;;;9.70;;
77206;SDS011;66190;50.708;7.906;2023-01-25T14:06:15;37.47;;;13.70;;
77206;SDS011;66190;50.708;7.906;2023-01-25T14:08:44;34.15;;;12.73;;
77206;SDS011;66190;50.708;7.906;2023-01-25T14:11:18;34.60;;;14.75;;
77206;SDS011;66190;50.708;7.906;2023-01-25T14:13:55;26.43;;;8.07;;
77206;SDS011;66190;50.708;7.906;2023-01-25T14:16:21;33.28;;;7.95;;
77206;SDS011;66190;50.708;7.906;2023-01-25T14:18:47;55.55;;;13.48;;
77206;SDS011;66190;50.708;7.906;2023-01-25T14:23:39;34.10;;;11.20;;
77206;SDS011;66190;50.708;7.906;2023-01-25T14:26:14;25.53;;;7.07;;
77206;SDS011;66190;50.708;7.906;2023-01-25T14:28:52;24.20;;;7.13;;
77206;SDS011;66190;50.708;7.906;2023-01-25T14:31:21;26.90;;;7.85;;
77206;SDS011;66190;50.708;7.906;2023-01-25T14:33:53;17.98;;;5.80;;
77206;SDS011;66190;50.708;7.906;2023-01-25T14:36:22;22.97;;;7.93;;
77206;SDS011;66190;50.708;7.906;2023-01-25T14:38:52;17.52;;;5.40;;
77206;SDS011;66190;50.708;7.906;2023-01-25T14:41:20;30.45;;;6.82;;
77206;SDS011;66190;50.708;7.906;2023-01-25T14:43:57;19.58;;;5.60;;
77206;SDS011;66190;50.708;7.906;2023-01-25T14:46:27;22.95;;;6.03;;
77206;SDS011;66190;50.708;7.906;2023-01-25T14:49:08;18.90;;;5.43;;
77206;SDS011;66190;50.708;7.906;2023-01-25T14:51:45;29.83;;;7.97;;
77206;SDS011;66190;50.708;7.906;2023-01-25T14:54:34;19.98;;;6.10;;
77206;SDS011;66190;50.708;7.906;2023-01-25T14:57:02;29.98;;;9.07;;
77206;SDS011;66190;50.708;7.906;2023-01-25T14:59:40;74.90;;;27.02;;
77206;SDS011;66190;50.708;7.906;2023-01-25T15:10:13;39.50;;;9.98;;
77206;SDS011;66190;50.708;7.906;2023-01-25T15:12:52;57.53;;;25.48;;
77206;SDS011;66190;50.708;7.906;2023-01-25T15:15:20;31.93;;;7.43;;
77206;SDS011;66190;50.708;7.906;2023-01-25T15:17:48;21.33;;;5.93;;
77206;SDS011;66190;50.708;7.906;2023-01-25T15:20:48;56.85;;;15.98;;
77206;SDS011;66190;50.708;7.906;2023-01-25T15:25:48;26.55;;;7.90;;
77206;SDS011;66190;50.708;7.906;2023-01-25T15:28:18;32.57;;;6.53;;
77206;SDS011;66190;50.708;7.906;2023-01-25T15:30:45;29.73;;;8.65;;
77206;SDS011;66190;50.708;7.906;2023-01-25T15:33:21;41.08;;;14.25;;
77206;SDS011;66190;50.708;7.906;2023-01-25T15:35:48;79.93;;;10.02;;
77206;SDS011;66190;50.708;7.906;2023-01-25T15:38:15;77.72;;;12.10;;
77206;SDS011;66190;50.708;7.906;2023-01-25T15:40:43;50.80;;;10.77;;
77206;SDS011;66190;50.708;7.906;2023-01-25T15:43:13;50.90;;;9.85;;
77206;SDS011;66190;50.708;7.906;2023-01-25T15:45:43;75.60;;;10.38;;
77206;SDS011;66190;50.708;7.906;2023-01-25T15:48:15;70.43;;;11.75;;
77206;SDS011;66190;50.708;7.906;2023-01-25T15:50:47;81.10;;;9.48;;
77206;SDS011;66190;50.708;7.906;2023-01-25T15:53:14;33.83;;;6.63;;
77206;SDS011;66190;50.708;7.906;2023-01-25T15:55:41;52.65;;;7.80;;
77206;SDS011;66190;50.708;7.906;2023-01-25T15:58:11;23.20;;;6.15;;
77206;SDS011;66190;50.708;7.906;2023-01-25T16:00:59;20.77;;;5.53;;
77206;SDS011;66190;50.708;7.906;2023-01-25T16:03:25;52.13;;;9.10;;
77206;SDS011;66190;50.708;7.906;2023-01-25T16:05:53;36.60;;;6.97;;
77206;SDS011;66190;50.708;7.906;2023-01-25T16:08:22;39.92;;;6.10;;
77206;SDS011;66190;50.708;7.906;2023-01-25T16:10:47;55.47;;;12.43;;
77206;SDS011;66190;50.708;7.906;2023-01-25T16:13:13;50.33;;;14.50;;
77206;SDS011;66190;50.708;7.906;2023-01-25T16:15:39;41.15;;;9.32;;
77206;SDS011;66190;50.708;7.906;2023-01-25T16:18:06;53.53;;;10.93;;
77206;SDS011;66190;50.708;7.906;2023-01-25T16:20:37;102.03;;;13.23;;
77206;SDS011;66190;50.708;7.906;2023-01-25T16:23:03;35.60;;;12.38;;
77206;SDS011;66190;50.708;7.906;2023-01-25T16:25:29;31.47;;;6.60;;
77206;SDS011;66190;50.708;7.906;2023-01-25T16:27:54;44.67;;;6.80;;
77206;SDS011;66190;50.708;7.906;2023-01-25T16:30:22;143.20;;;41.65;;
77206;SDS011;66190;50.708;7.906;2023-01-25T16:32:51;55.50;;;10.88;;
77206;SDS011;66190;50.708;7.906;2023-01-25T16:35:17;48.83;;;8.33;;
77206;SDS011;66190;50.708;7.906;2023-01-25T16:37:44;55.95;;;7.97;;
77206;SDS011;66190;50.708;7.906;2023-01-25T16:40:16;138.32;;;19.23;;
77206;SDS011;66190;50.708;7.906;2023-01-25T16:42:51;34.90;;;8.60;;
77206;SDS011;66190;50.708;7.906;2023-01-25T16:45:16;39.83;;;7.80;;
77206;SDS011;66190;50.708;7.906;2023-01-25T16:47:43;48.65;;;8.23;;
77206;SDS011;66190;50.708;7.906;2023-01-25T16:50:11;47.92;;;11.23;;
77206;SDS011;66190;50.708;7.906;2023-01-25T16:52:41;47.13;;;9.18;;